Time;durP1;ratioP1;P1;durP2;ratioP2;P2;SDS_P1;SDS_P2;PMS_P1;PMS_P2;Temp;Humidity;BMP_temperature;BMP_pressure;BME280_temperature;BME280_humidity;BME280_pressure;Samples;Min_cycle;Max_cycle;Signal;HPM_P1;HPM_P2
2022/05/08 00:01:01;;;;;;;11.73;8.20;;;14.00;99.90;;;;;;5031493;28;20306;-80
2022/05/08 00:03:29;;;;;;;13.40;7.83;;;14.00;99.90;;;;;;5031289;28;20256;-79
2022/05/08 00:05:56;;;;;;;12.50;7.90;;;14.00;99.90;;;;;;5064262;28;20723;-81
2022/05/08 00:08:24;;;;;;;10.67;7.33;;;14.10;99.90;;;;;;5032666;28;20187;-78
2022/05/08 00:10:51;;;;;;;11.43;6.77;;;14.00;99.90;;;;;;5032129;28;20643;-79
2022/05/08 00:13:18;;;;;;;11.80;6.70;;;14.00;99.90;;;;;;5031269;28;20210;-79
2022/05/08 00:15:45;;;;;;;10.47;6.83;;;14.10;99.90;;;;;;5031830;28;20196;-81
2022/05/08 00:18:12;;;;;;;12.43;7.10;;;14.10;99.90;;;;;;5064823;28;20204;-74
2022/05/08 00:20:38;;;;;;;13.47;6.90;;;14.10;99.90;;;;;;5030977;28;20256;-79
2022/05/08 00:23:05;;;;;;;10.27;6.60;;;14.10;99.90;;;;;;5034277;28;20191;-81
2022/05/08 00:25:32;;;;;;;13.47;6.77;;;14.10;99.90;;;;;;5068579;28;20298;-80
2022/05/08 00:28:00;;;;;;;10.27;6.63;;;14.10;99.90;;;;;;5035224;28;20289;-80
2022/05/08 00:30:27;;;;;;;12.73;6.57;;;14.00;99.90;;;;;;5036387;28;20618;-81
2022/05/08 00:32:54;;;;;;;11.37;6.10;;;14.00;99.90;;;;;;5035230;28;20246;-77
2022/05/08 00:35:21;;;;;;;9.23;6.40;;;14.00;99.90;;;;;;5034561;28;20196;-81
2022/05/08 00:37:47;;;;;;;11.13;5.90;;;14.00;99.90;;;;;;5036283;28;20290;-79
2022/05/08 00:40:14;;;;;;;13.83;6.83;;;14.00;99.90;;;;;;5068238;28;20283;-80
2022/05/08 00:42:42;;;;;;;9.63;6.40;;;14.00;99.90;;;;;;5018715;28;20192;-79
2022/05/08 00:45:10;;;;;;;11.13;6.57;;;14.00;99.90;;;;;;5035071;28;20257;-77
2022/05/08 00:47:37;;;;;;;11.27;6.33;;;13.90;99.90;;;;;;5034720;28;20216;-79
2022/05/08 00:50:06;;;;;;;10.70;6.37;;;13.90;99.90;;;;;;5034910;28;20287;-76
2022/05/08 00:52:35;;;;;;;10.90;6.97;;;13.90;99.90;;;;;;5034685;28;20233;-79
2022/05/08 00:55:02;;;;;;;11.80;6.60;;;13.90;99.90;;;;;;5034879;28;20238;-79
2022/05/08 00:57:30;;;;;;;11.33;6.60;;;13.90;99.90;;;;;;5067843;28;20221;-78
2022/05/08 01:00:01;;;;;;;16.93;10.27;;;13.70;99.90;;;;;;5034783;28;20640;-80
2022/05/08 01:02:29;;;;;;;17.23;9.27;;;13.40;99.90;;;;;;5034787;28;20241;-79
2022/05/08 01:04:56;;;;;;;16.13;8.83;;;13.40;99.90;;;;;;5034221;28;20691;-72
2022/05/08 01:07:23;;;;;;;14.50;9.13;;;13.40;99.90;;;;;;5034282;28;20262;-78
2022/05/08 01:09:51;;;;;;;16.00;8.53;;;13.50;99.90;;;;;;5034580;28;20199;-78
2022/05/08 01:12:18;;;;;;;13.90;8.73;;;13.50;99.90;;;;;;5034462;28;20328;-78
2022/05/08 01:14:45;;;;;;;13.70;8.50;;;13.40;99.90;;;;;;5035627;28;20706;-78
2022/05/08 01:17:14;;;;;;;15.90;8.27;;;13.50;99.90;;;;;;5067967;28;20217;-77
2022/05/08 01:19:41;;;;;;;14.17;8.20;;;13.60;99.90;;;;;;5067512;28;20221;-77
2022/05/08 01:22:08;;;;;;;12.77;8.23;;;13.60;99.90;;;;;;5067620;28;20303;-76
2022/05/08 01:24:35;;;;;;;15.00;8.43;;;13.70;99.90;;;;;;5034507;28;20286;-75
2022/05/08 01:27:02;;;;;;;12.80;8.30;;;13.80;99.90;;;;;;5033852;28;20297;-77
2022/05/08 01:29:29;;;;;;;13.70;8.30;;;13.80;99.90;;;;;;5034282;28;20643;-76
2022/05/08 01:31:56;;;;;;;14.80;8.80;;;13.80;99.90;;;;;;5035085;28;20676;-75
2022/05/08 01:34:23;;;;;;;14.43;8.37;;;13.90;99.90;;;;;;5033272;28;20594;-75
2022/05/08 01:36:50;;;;;;;13.93;8.17;;;14.00;99.90;;;;;;5033718;28;20207;-75
2022/05/08 01:39:16;;;;;;;12.60;7.83;;;14.00;99.90;;;;;;5034191;28;20623;-76
2022/05/08 01:41:43;;;;;;;14.17;9.00;;;14.00;99.90;;;;;;5033885;28;20650;-75
2022/05/08 01:44:10;;;;;;;12.47;8.20;;;14.00;99.90;;;;;;5033690;28;20203;-75
2022/05/08 01:46:37;;;;;;;14.77;8.33;;;14.00;99.90;;;;;;5033818;28;20692;-76
2022/05/08 01:49:04;;;;;;;15.20;9.30;;;14.10;99.90;;;;;;5033584;28;20195;-79
2022/05/08 01:51:31;;;;;;;12.13;8.40;;;14.10;99.90;;;;;;5034875;28;20223;-78
2022/05/08 01:53:57;;;;;;;12.70;8.33;;;14.10;99.90;;;;;;5067115;28;20217;-76
2022/05/08 01:56:24;;;;;;;13.53;8.90;;;14.10;99.90;;;;;;5033693;28;20209;-78
2022/05/08 01:58:52;;;;;;;15.30;8.57;;;14.10;99.90;;;;;;5033457;28;20231;-77
2022/05/08 02:01:19;;;;;;;13.07;8.23;;;14.20;99.90;;;;;;5033659;28;20226;-77
2022/05/08 02:03:46;;;;;;;13.70;8.60;;;14.20;99.90;;;;;;5066593;28;20210;-77
2022/05/08 02:06:16;;;;;;;13.73;8.17;;;14.10;99.90;;;;;;5033048;28;20263;-77
2022/05/08 02:08:43;;;;;;;13.93;8.40;;;14.20;99.90;;;;;;5033834;28;20298;-77
2022/05/08 02:11:10;;;;;;;13.70;8.10;;;14.20;99.90;;;;;;5066491;28;20297;-77
2022/05/08 02:13:37;;;;;;;12.47;8.13;;;14.20;99.90;;;;;;5066698;28;20297;-76
2022/05/08 02:16:04;;;;;;;14.77;8.80;;;14.20;99.90;;;;;;5034386;28;20195;-76
2022/05/08 02:18:30;;;;;;;14.90;8.67;;;14.20;99.90;;;;;;5034415;28;20210;-76
2022/05/08 02:20:57;;;;;;;16.57;8.47;;;14.10;99.90;;;;;;5033143;28;20278;-76
2022/05/08 02:23:24;;;;;;;14.10;9.30;;;14.10;99.90;;;;;;5033317;28;20225;-76
2022/05/08 02:25:51;;;;;;;15.33;8.53;;;14.10;99.90;;;;;;5032989;28;20559;-77
2022/05/08 02:28:18;;;;;;;15.83;9.00;;;14.10;99.90;;;;;;5033043;28;20736;-74
2022/05/08 02:30:45;;;;;;;14.40;9.03;;;14.10;99.90;;;;;;5033216;28;20242;-78
2022/05/08 02:33:11;;;;;;;21.00;9.70;;;14.10;99.90;;;;;;5065835;28;20254;-79
2022/05/08 02:35:40;;;;;;;13.00;8.87;;;14.10;99.90;;;;;;5066056;28;20210;-79
2022/05/08 02:38:07;;;;;;;14.13;9.10;;;14.00;99.90;;;;;;5008663;28;20293;-78
2022/05/08 02:40:34;;;;;;;13.57;9.53;;;14.00;99.90;;;;;;5008889;28;20204;-78
2022/05/08 02:43:01;;;;;;;15.87;9.27;;;14.00;99.90;;;;;;5008736;28;20228;-78
2022/05/08 02:45:27;;;;;;;16.20;9.40;;;14.00;99.90;;;;;;5008418;28;20209;-79
2022/05/08 02:47:54;;;;;;;13.10;8.77;;;13.90;99.90;;;;;;4975323;28;20290;-76
2022/05/08 02:50:21;;;;;;;15.77;9.00;;;13.90;99.90;;;;;;4975953;28;20202;-76
2022/05/08 02:52:50;;;;;;;17.87;10.03;;;13.90;99.90;;;;;;5008774;28;20232;-77
2022/05/08 03:00:48;;;;;;;17.00;9.07;;;13.90;99.90;;;;;;5066061;28;20314;-80
2022/05/08 03:03:16;;;;;;;14.73;9.17;;;14.00;99.90;;;;;;5066641;28;20213;-78
2022/05/08 03:05:44;;;;;;;17.00;8.47;;;14.00;99.90;;;;;;5032087;28;20229;-79
2022/05/08 03:08:14;;;;;;;14.00;9.17;;;13.90;99.90;;;;;;5032227;28;20298;-76
2022/05/08 03:13:27;;;;;;;13.63;8.40;;;13.90;99.90;;;;;;5033407;28;20343;-74
2022/05/08 03:15:54;;;;;;;13.47;8.43;;;13.90;99.90;;;;;;5065382;28;20621;-74
2022/05/08 03:18:22;;;;;;;13.40;7.87;;;13.90;99.90;;;;;;5032284;28;20297;-73
2022/05/08 03:20:49;;;;;;;13.03;8.23;;;13.90;99.90;;;;;;5032000;28;20204;-74
2022/05/08 03:23:16;;;;;;;13.40;8.00;;;13.90;99.90;;;;;;5033374;28;20712;-79
2022/05/08 03:25:43;;;;;;;14.60;8.10;;;13.90;99.90;;;;;;5031665;28;20206;-75
2022/05/08 03:28:10;;;;;;;11.17;7.40;;;13.90;99.90;;;;;;5065268;28;20750;-76
2022/05/08 03:30:37;;;;;;;13.50;7.40;;;13.90;99.90;;;;;;5065221;28;20188;-76
2022/05/08 03:33:06;;;;;;;14.10;8.17;;;13.90;99.90;;;;;;5031581;28;20642;-75
2022/05/08 03:35:33;;;;;;;14.97;7.77;;;13.90;99.90;;;;;;5031775;28;20202;-77
2022/05/08 03:38:00;;;;;;;11.60;7.60;;;13.80;99.90;;;;;;5031500;28;20290;-76
2022/05/08 03:40:27;;;;;;;11.47;7.53;;;13.80;99.90;;;;;;5031583;28;20204;-78
2022/05/08 03:42:54;;;;;;;11.63;7.63;;;13.90;99.90;;;;;;5031735;28;20296;-76
2022/05/08 03:45:21;;;;;;;12.07;7.47;;;13.80;99.90;;;;;;5031615;28;20205;-75
2022/05/08 03:47:52;;;;;;;11.23;7.30;;;13.80;99.90;;;;;;5065146;28;20312;-77
2022/05/08 03:50:20;;;;;;;17.17;7.77;;;13.80;99.90;;;;;;5031591;28;20597;-77
2022/05/08 03:52:48;;;;;;;13.50;7.43;;;13.80;99.90;;;;;;5032785;28;20218;-77
2022/05/08 03:55:15;;;;;;;12.27;7.07;;;13.80;99.90;;;;;;5032527;28;20196;-77
2022/05/08 03:57:43;;;;;;;11.63;7.33;;;13.80;99.90;;;;;;5032606;28;20231;-75
2022/05/08 04:00:11;;;;;;;10.93;6.80;;;13.70;99.90;;;;;;5031087;28;20210;-75
2022/05/08 04:02:38;;;;;;;12.70;7.00;;;13.70;99.90;;;;;;5031590;28;20246;-76
2022/05/08 04:05:06;;;;;;;10.67;7.13;;;13.60;99.90;;;;;;5031178;28;20195;-76
2022/05/08 04:07:33;;;;;;;11.13;6.80;;;13.50;99.90;;;;;;5064298;28;20266;-77
2022/05/08 04:10:02;;;;;;;12.83;6.90;;;13.40;99.90;;;;;;5064951;28;20286;-79
2022/05/08 04:12:30;;;;;;;11.20;6.90;;;13.40;99.90;;;;;;5032325;28;20214;-78
2022/05/08 04:14:57;;;;;;;12.17;7.03;;;13.50;99.90;;;;;;5031315;28;20226;-79
2022/05/08 04:17:26;;;;;;;11.47;6.73;;;13.50;99.90;;;;;;5064415;28;20304;-78
2022/05/08 04:19:53;;;;;;;13.10;7.27;;;13.40;99.90;;;;;;5031471;28;20208;-80
2022/05/08 04:25:07;;;;;;;11.63;7.10;;;13.40;99.90;;;;;;5032398;28;20202;-79
2022/05/08 04:27:37;;;;;;;14.60;8.23;;;13.40;99.90;;;;;;5064805;28;20302;-79
2022/05/08 04:30:05;;;;;;;17.27;8.00;;;13.40;99.90;;;;;;5030916;28;20644;-81
2022/05/08 04:32:32;;;;;;;13.97;8.13;;;13.50;99.90;;;;;;5031088;28;20258;-81
2022/05/08 04:34:58;;;;;;;12.97;8.00;;;13.40;99.90;;;;;;5030777;28;20290;-81
2022/05/08 04:37:25;;;;;;;22.73;10.17;;;13.40;99.90;;;;;;5031977;28;20191;-80
2022/05/08 04:39:52;;;;;;;13.40;8.20;;;13.50;99.90;;;;;;5032478;28;20176;-78
2022/05/08 04:42:19;;;;;;;12.93;7.87;;;13.50;99.90;;;;;;5030970;28;20572;-77
2022/05/08 04:44:46;;;;;;;14.43;8.47;;;13.50;99.90;;;;;;5064498;28;20213;-79
2022/05/08 04:47:13;;;;;;;14.90;8.77;;;13.50;99.90;;;;;;5030811;28;20231;-78
2022/05/08 04:49:42;;;;;;;12.93;8.57;;;13.50;99.90;;;;;;5030877;28;20230;-78
2022/05/08 04:52:10;;;;;;;12.97;8.87;;;13.40;99.90;;;;;;5030938;28;20673;-76
2022/05/08 04:54:36;;;;;;;15.63;9.00;;;13.50;99.90;;;;;;5030842;28;20208;-79
2022/05/08 04:57:03;;;;;;;16.50;8.77;;;13.50;99.90;;;;;;5064276;28;20226;-77
2022/05/08 04:59:31;;;;;;;14.73;8.60;;;13.40;99.90;;;;;;5032030;28;20187;-76
2022/05/08 05:01:58;;;;;;;15.50;8.50;;;13.40;99.90;;;;;;5030727;28;20302;-74
2022/05/08 05:04:25;;;;;;;18.90;9.03;;;13.50;99.90;;;;;;5030518;28;20684;-79
2022/05/08 05:06:52;;;;;;;14.07;8.40;;;13.50;99.90;;;;;;5030646;28;20315;-81
2022/05/08 05:09:19;;;;;;;16.27;8.80;;;13.50;99.90;;;;;;5031377;28;20222;-78
2022/05/08 05:11:46;;;;;;;15.20;9.37;;;13.50;99.90;;;;;;5034640;28;20208;-79
2022/05/08 05:14:13;;;;;;;31.73;11.43;;;13.40;99.90;;;;;;5067768;28;20337;-81
2022/05/08 05:16:40;;;;;;;14.33;9.00;;;13.40;99.90;;;;;;5034327;28;20296;-80
2022/05/08 05:19:07;;;;;;;17.63;9.67;;;13.40;99.90;;;;;;5034387;28;20209;-80
2022/05/08 05:21:34;;;;;;;13.27;8.73;;;13.40;99.90;;;;;;5034223;28;20283;-80
2022/05/08 05:24:01;;;;;;;13.63;8.87;;;13.50;99.90;;;;;;5034602;28;20230;-79
2022/05/08 05:26:28;;;;;;;16.57;9.47;;;13.50;99.90;;;;;;5034093;28;20653;-75
2022/05/08 05:28:55;;;;;;;14.90;8.93;;;13.60;99.90;;;;;;5034242;28;20244;-73
2022/05/08 05:31:22;;;;;;;13.70;9.47;;;13.60;99.90;;;;;;5034016;28;20223;-80
2022/05/08 05:33:49;;;;;;;18.03;10.20;;;13.60;99.90;;;;;;5034084;28;20249;-81
2022/05/08 05:36:15;;;;;;;19.53;9.67;;;13.60;99.90;;;;;;5034804;28;20241;-79
2022/05/08 05:38:42;;;;;;;16.73;9.60;;;13.70;99.90;;;;;;5034157;28;20201;-79
2022/05/08 05:41:09;;;;;;;14.27;9.50;;;13.90;99.90;;;;;;5067326;28;20726;-80
2022/05/08 05:43:36;;;;;;;17.17;9.73;;;14.10;99.90;;;;;;5035070;28;20274;-80
2022/05/08 05:48:48;;;;;;;17.17;9.70;;;14.30;99.90;;;;;;5066945;28;20599;-81
2022/05/08 05:51:15;;;;;;;14.87;9.70;;;14.30;99.90;;;;;;5034976;28;20637;-78
2022/05/08 05:53:42;;;;;;;18.23;10.07;;;14.40;99.90;;;;;;5066656;28;20331;-80
2022/05/08 05:56:09;;;;;;;18.10;10.17;;;14.50;99.90;;;;;;5033488;28;20195;-78
2022/05/08 05:58:36;;;;;;;19.60;11.07;;;14.70;99.90;;;;;;5067044;28;20206;-78
2022/05/08 06:01:03;;;;;;;17.20;10.17;;;14.60;99.90;;;;;;5066639;28;20311;-78
2022/05/08 06:03:32;;;;;;;17.53;10.83;;;14.80;99.90;;;;;;5033625;28;20200;-79
2022/05/08 06:05:59;;;;;;;16.73;11.53;;;15.00;99.90;;;;;;5066423;28;20321;-79
2022/05/08 06:08:26;;;;;;;20.97;11.67;;;15.00;99.90;;;;;;5033763;28;20223;-82
2022/05/08 06:10:53;;;;;;;18.63;11.03;;;14.90;99.90;;;;;;5033298;28;20286;-79
2022/05/08 06:13:21;;;;;;;19.67;11.87;;;14.80;99.90;;;;;;5033456;28;20306;-79
2022/05/08 06:15:48;;;;;;;19.20;11.70;;;14.80;99.90;;;;;;5033149;28;20189;-80
2022/05/08 06:18:15;;;;;;;19.50;11.57;;;14.90;99.90;;;;;;5034456;28;20719;-79
2022/05/08 06:20:42;;;;;;;17.83;11.27;;;15.10;99.90;;;;;;5034332;28;20187;-76
2022/05/08 06:23:09;;;;;;;21.90;12.07;;;15.30;99.90;;;;;;5033132;28;20210;-77
2022/05/08 06:25:40;;;;;;;20.23;12.30;;;15.40;99.90;;;;;;5032946;28;20293;-77
2022/05/08 06:28:08;;;;;;;19.23;11.73;;;15.30;99.90;;;;;;5066165;28;20191;-81
2022/05/08 06:30:35;;;;;;;18.53;12.17;;;15.40;99.90;;;;;;5032991;28;20191;-80
2022/05/08 06:33:02;;;;;;;17.63;11.53;;;15.50;99.90;;;;;;5032668;28;20230;-84
2022/05/08 06:35:39;;;;;;;18.43;10.63;;;15.70;99.90;;;;;;5033681;28;20196;-73
2022/05/08 06:38:12;;;;;;;17.17;10.37;;;15.80;99.90;;;;;;5032995;28;20570;-81
2022/05/08 06:40:40;;;;;;;16.53;11.00;;;16.10;99.90;;;;;;5032716;28;20225;-77
2022/05/08 06:43:08;;;;;;;16.67;10.43;;;16.30;99.90;;;;;;5016313;28;20245;-76
2022/05/08 06:45:35;;;;;;;15.87;9.43;;;16.60;99.90;;;;;;5032584;28;20671;-78
2022/05/08 06:48:02;;;;;;;13.70;8.67;;;16.80;99.90;;;;;;5032458;28;20556;-75
2022/05/08 06:50:30;;;;;;;11.13;6.87;;;17.00;99.90;;;;;;5032876;28;20294;-75
2022/05/08 06:52:57;;;;;;;12.47;7.17;;;17.20;99.90;;;;;;5049269;28;20231;-75
2022/05/08 06:55:23;;;;;;;11.87;7.03;;;17.30;99.90;;;;;;5032821;28;20601;-79
2022/05/08 06:57:50;;;;;;;12.77;7.70;;;17.50;99.90;;;;;;5032366;28;20237;-79
2022/05/08 07:03:05;;;;;;;11.10;6.77;;;17.70;99.90;;;;;;5065730;28;20735;-80
2022/05/08 07:05:33;;;;;;;10.47;5.90;;;18.00;99.90;;;;;;5065030;28;20298;-79
2022/05/08 07:08:00;;;;;;;7.47;4.97;;;18.20;99.90;;;;;;5032365;28;20223;-80
2022/05/08 07:10:26;;;;;;;7.47;5.27;;;18.40;99.90;;;;;;5032250;28;20741;-79
2022/05/08 07:12:55;;;;;;;8.90;5.43;;;18.40;99.90;;;;;;5032360;28;20318;-79
2022/05/08 07:15:22;;;;;;;7.73;5.57;;;18.50;99.90;;;;;;5031976;28;20613;-80
2022/05/08 07:18:09;;;;;;;8.03;4.97;;;18.60;99.90;;;;;;5065477;28;20208;-79
2022/05/08 07:20:36;;;;;;;8.53;5.60;;;18.80;99.90;;;;;;5065592;28;20215;-75
2022/05/08 07:23:03;;;;;;;8.83;5.03;;;18.90;99.90;;;;;;5031592;28;20230;-79
2022/05/08 07:25:31;;;;;;;7.73;5.10;;;19.00;99.90;;;;;;5033345;28;20653;-79
2022/05/08 07:27:58;;;;;;;7.13;5.00;;;19.20;99.90;;;;;;5032025;28;20208;-76
2022/05/08 07:30:25;;;;;;;7.33;5.33;;;19.20;99.90;;;;;;5032157;28;20219;-80
2022/05/08 07:32:52;;;;;;;9.63;5.07;;;19.20;99.90;;;;;;5031124;28;20654;-79
2022/05/08 07:38:05;;;;;;;9.17;5.90;;;19.50;99.90;;;;;;5069149;28;20199;-77
2022/05/08 07:41:31;;;;;;;7.97;4.77;;;18.90;99.90;;;;;;5070424;28;20959;-83
2022/05/08 07:43:58;;;;;;;7.27;4.80;;;19.10;99.90;;;;;;5068647;28;20190;-77
2022/05/08 07:46:25;;;;;;;4.50;3.80;;;19.30;99.90;;;;;;5085241;28;20711;-80
2022/05/08 07:48:53;;;;;;;6.73;4.30;;;19.30;99.90;;;;;;5068349;28;20202;-80
2022/05/08 07:51:20;;;;;;;6.37;4.10;;;19.30;99.90;;;;;;5069957;28;20269;-78
2022/05/08 07:53:47;;;;;;;5.87;4.00;;;19.40;99.90;;;;;;5085342;28;20293;-81
2022/05/08 07:56:14;;;;;;;6.57;4.13;;;19.30;99.90;;;;;;5084891;28;20208;-80
2022/05/08 07:58:41;;;;;;;6.80;4.00;;;19.40;99.90;;;;;;5068378;28;20233;-82
2022/05/08 08:01:10;;;;;;;5.67;3.90;;;19.40;99.90;;;;;;5067818;28;20233;-79
2022/05/08 08:03:37;;;;;;;6.17;3.83;;;19.50;99.90;;;;;;5067969;28;20194;-75
2022/05/08 08:06:04;;;;;;;4.90;3.60;;;19.60;99.90;;;;;;5067937;28;20232;-78
2022/05/08 08:08:36;;;;;;;7.63;4.63;;;19.70;99.90;;;;;;5067947;28;20659;-79
2022/05/08 08:11:04;;;;;;;9.30;4.57;;;19.70;99.90;;;;;;5068047;28;20285;-80
2022/05/08 08:13:33;;;;;;;10.97;4.87;;;19.70;99.90;;;;;;5069308;28;20194;-80
2022/05/08 08:16:01;;;;;;;7.67;4.50;;;19.70;99.90;;;;;;5067863;28;20230;-80
2022/05/08 08:18:28;;;;;;;7.90;4.07;;;19.60;99.90;;;;;;5067796;28;20289;-80
2022/05/08 08:20:55;;;;;;;7.13;4.03;;;19.60;99.90;;;;;;5068077;28;20218;-83
2022/05/08 08:23:23;;;;;;;5.80;3.90;;;19.60;99.90;;;;;;5068169;28;20290;-81
2022/05/08 08:25:51;;;;;;;8.70;4.50;;;19.60;99.90;;;;;;5068513;28;20293;-80
2022/05/08 08:28:18;;;;;;;6.50;4.23;;;19.40;99.90;;;;;;5074663;28;20226;-83
2022/05/08 08:30:45;;;;;;;9.13;4.83;;;19.20;99.90;;;;;;5072961;28;20195;-80
2022/05/08 08:33:12;;;;;;;7.30;5.20;;;19.30;99.90;;;;;;5070242;28;20244;-78
2022/05/08 08:35:39;;;;;;;17.03;5.43;;;19.30;99.90;;;;;;5071348;28;20198;-76
2022/05/08 08:38:08;;;;;;;6.33;4.10;;;19.30;99.90;;;;;;5070547;28;20198;-82
2022/05/08 08:40:42;;;;;;;7.53;4.47;;;19.40;99.90;;;;;;5044464;28;20696;-82
2022/05/08 08:43:09;;;;;;;7.90;4.70;;;19.50;99.90;;;;;;5050220;28;20195;-81
2022/05/08 08:48:28;;;;;;;18.27;6.67;;;19.60;99.90;;;;;;5048580;28;20287;-81
2022/05/08 08:50:57;;;;;;;6.57;4.57;;;19.80;99.90;;;;;;5046151;28;20194;-78
2022/05/08 08:53:25;;;;;;;10.50;5.10;;;20.10;99.90;;;;;;5033770;28;20687;-79
2022/05/08 08:55:53;;;;;;;6.37;4.60;;;20.40;99.90;;;;;;5033695;28;20244;-80
2022/05/08 08:58:21;;;;;;;7.53;4.63;;;20.70;99.90;;;;;;5035194;28;20559;-75
2022/05/08 09:00:50;;;;;;;8.63;4.43;;;21.00;99.90;;;;;;5033493;28;20231;-78
2022/05/08 09:03:25;;;;;;;7.73;4.50;;;21.20;99.90;;;;;;5034023;28;20219;-79
2022/05/08 09:06:02;;;;;;;7.90;4.27;;;21.20;99.90;;;;;;5050320;28;20738;-80
2022/05/08 09:08:35;;;;;;;7.20;4.50;;;21.30;99.90;;;;;;5030176;28;20241;-77
2022/05/08 09:11:06;;;;;;;7.47;4.60;;;21.10;99.90;;;;;;5036715;28;20191;-76
2022/05/08 09:13:50;;;;;;;7.60;4.50;;;20.00;99.90;;;;;;5034732;28;20212;-79
2022/05/08 09:16:17;;;;;;;13.77;5.87;;;19.90;99.90;;;;;;5034913;28;20195;-79
2022/05/08 09:18:45;;;;;;;8.93;5.50;;;19.80;99.90;;;;;;5035582;28;20270;-84
2022/05/08 09:24:14;;;;;;;7.20;4.97;;;19.80;99.90;;;;;;5033593;28;20290;-78
2022/05/08 09:26:41;;;;;;;8.47;5.10;;;20.20;99.90;;;;;;5033949;28;20203;-80
2022/05/08 09:29:21;;;;;;;9.77;4.70;;;20.30;99.90;;;;;;5033554;28;20249;-76
2022/05/08 09:31:48;;;;;;;8.73;4.63;;;20.60;99.90;;;;;;5058009;28;20219;-76
2022/05/08 09:34:15;;;;;;;7.33;4.97;;;20.40;99.90;;;;;;5045659;28;20207;-83
2022/05/08 09:36:42;;;;;;;7.60;4.50;;;20.40;99.90;;;;;;5035025;28;20200;-83
2022/05/08 09:39:11;;;;;;;5.80;3.90;;;20.60;99.90;;;;;;5050237;28;20365;-81
2022/05/08 09:41:39;;;;;;;5.83;4.30;;;20.70;99.90;;;;;;5041792;28;20622;-84
2022/05/08 09:44:11;;;;;;;8.30;4.23;;;20.90;99.90;;;;;;5034555;28;20664;-78
2022/05/08 09:46:39;;;;;;;5.03;3.80;;;21.10;99.90;;;;;;5034569;28;20199;-73
2022/05/08 09:49:06;;;;;;;9.20;4.93;;;21.20;99.90;;;;;;5033543;28;20195;-77
2022/05/08 09:51:34;;;;;;;7.17;4.57;;;21.00;99.90;;;;;;5033371;28;20606;-73
2022/05/08 09:54:04;;;;;;;6.37;4.10;;;20.90;99.90;;;;;;5034227;28;20191;-78
2022/05/08 09:56:40;;;;;;;9.50;4.30;;;20.90;99.90;;;;;;5033288;28;20223;-78
2022/05/08 09:59:08;;;;;;;6.17;3.70;;;20.90;99.90;;;;;;5033442;28;20235;-79
2022/05/08 10:01:36;;;;;;;7.23;4.20;;;21.00;99.90;;;;;;5032873;28;20227;-81
2022/05/08 10:04:04;;;;;;;6.37;4.30;;;20.70;99.90;;;;;;5032045;28;20192;-80
2022/05/08 10:06:36;;;;;;;9.83;4.37;;;20.40;99.90;;;;;;5016653;28;20241;-78
2022/05/08 10:15:19;;;;;;;7.50;4.27;;;19.90;99.90;;;;;;5015392;28;20204;-83
2022/05/08 10:17:46;;;;;;;8.63;4.33;;;19.60;99.90;;;;;;5015531;28;20285;-84
2022/05/08 10:20:13;;;;;;;7.00;4.40;;;19.40;99.90;;;;;;5015793;28;20231;-84
2022/05/08 10:22:48;;;;;;;7.97;4.10;;;19.10;99.90;;;;;;5031766;28;20195;-83
2022/05/08 10:25:16;;;;;;;7.27;4.40;;;19.40;99.90;;;;;;5014897;28;20249;-80
2022/05/08 10:28:16;;;;;;;5.60;4.10;;;19.60;99.90;;;;;;5015207;28;20235;-84
2022/05/08 10:30:43;;;;;;;6.60;4.37;;;19.70;99.90;;;;;;4972770;28;20293;-77
2022/05/08 10:33:20;;;;;;;7.13;4.03;;;19.70;99.90;;;;;;4957131;28;20600;-71
2022/05/08 10:36:06;;;;;;;6.77;4.30;;;19.80;99.90;;;;;;4956574;28;20312;-82
2022/05/08 10:38:33;;;;;;;6.50;4.43;;;19.60;99.90;;;;;;4956453;28;20225;-82
2022/05/08 10:41:00;;;;;;;8.93;4.30;;;19.40;99.90;;;;;;4956762;28;20264;-77
2022/05/08 10:43:28;;;;;;;7.37;4.50;;;19.40;99.90;;;;;;4972861;28;20209;-76
2022/05/08 10:45:56;;;;;;;5.70;3.90;;;19.40;99.90;;;;;;4955949;28;20239;-74
2022/05/08 10:48:26;;;;;;;6.77;4.37;;;19.40;99.90;;;;;;4956387;28;20647;-74
2022/05/08 10:50:55;;;;;;;6.43;4.20;;;19.40;99.90;;;;;;4971934;28;20201;-72
2022/05/08 10:53:23;;;;;;;6.50;4.23;;;19.20;99.90;;;;;;4971940;28;20690;-70
2022/05/08 10:55:57;;;;;;;5.83;4.03;;;19.10;99.90;;;;;;4943050;29;20233;-71
2022/05/08 10:58:24;;;;;;;6.73;4.30;;;19.10;99.90;;;;;;4937007;29;20202;-70
2022/05/08 11:00:58;;;;;;;5.83;3.97;;;18.80;99.90;;;;;;4952680;29;20317;-68
2022/05/08 11:03:26;;;;;;;5.77;3.97;;;18.80;99.90;;;;;;4952441;29;20202;-70
2022/05/08 11:05:53;;;;;;;7.70;4.10;;;18.90;99.90;;;;;;4936378;29;20289;-70
2022/05/08 11:08:28;;;;;;;10.33;4.70;;;19.00;99.90;;;;;;5029684;28;20286;-70
2022/05/08 11:11:12;;;;;;;6.80;4.33;;;19.00;99.90;;;;;;5032796;28;20609;-70
2022/05/08 11:13:51;;;;;;;9.77;4.50;;;18.70;99.90;;;;;;5031876;28;20203;-69
2022/05/08 11:16:37;;;;;;;7.30;4.37;;;18.90;99.90;;;;;;5030980;28;20623;-69
2022/05/08 11:19:05;;;;;;;6.27;4.03;;;19.00;99.90;;;;;;5031702;28;20199;-70
2022/05/08 11:21:33;;;;;;;8.07;5.13;;;19.10;99.90;;;;;;5031687;28;20310;-67
2022/05/08 11:24:00;;;;;;;5.60;4.00;;;19.20;99.90;;;;;;5031244;28;20290;-68
2022/05/08 11:26:30;;;;;;;6.00;4.43;;;19.70;99.90;;;;;;5031501;28;20282;-68
2022/05/08 11:28:58;;;;;;;9.87;4.90;;;20.20;99.90;;;;;;5031130;28;20291;-69
2022/05/08 11:31:28;;;;;;;6.00;4.33;;;20.70;99.90;;;;;;5032562;28;20223;-68
2022/05/08 11:36:44;;;;;;;6.27;4.40;;;21.20;99.90;;;;;;5031297;28;20203;-69
2022/05/08 11:39:17;;;;;;;8.07;4.30;;;21.70;99.90;;;;;;5030911;28;20195;-68
2022/05/08 11:41:46;;;;;;;7.03;3.87;;;22.20;99.90;;;;;;5031069;28;20224;-68
2022/05/08 11:44:13;;;;;;;7.60;4.13;;;22.70;99.90;;;;;;5031169;28;20183;-69
2022/05/08 11:46:46;;;;;;;6.07;4.00;;;23.60;99.90;;;;;;5031127;28;20206;-69
2022/05/08 11:49:17;;;;;;;5.97;4.60;;;24.30;99.40;;;;;;5031401;28;20629;-69
2022/05/08 11:51:45;;;;;;;5.25;4.30;;;24.70;96.00;;;;;;5031322;28;20239;-70
2022/05/08 11:54:24;;;;;;;7.88;3.90;;;24.70;94.00;;;;;;5030721;28;20649;-69
2022/05/08 11:57:16;;;;;;;4.47;3.65;;;24.20;95.70;;;;;;5030962;28;20294;-69
2022/05/08 11:59:45;;;;;;;6.82;3.13;;;25.40;92.70;;;;;;5031158;28;20286;-70
2022/05/08 12:02:13;;;;;;;7.10;3.40;;;26.60;87.50;;;;;;5030705;28;20249;-68
2022/05/08 12:04:43;;;;;;;4.65;3.30;;;26.20;85.50;;;;;;5030682;28;20195;-69
2022/05/08 12:07:13;;;;;;;5.05;2.95;;;26.90;80.90;;;;;;5030910;28;20204;-68
2022/05/08 12:09:43;;;;;;;4.55;2.60;;;27.40;77.90;;;;;;5030647;28;20234;-68
2022/05/08 12:12:23;;;;;;;5.00;3.05;;;28.30;74.10;;;;;;5031107;28;20309;-68
2022/05/08 12:14:55;;;;;;;5.57;2.60;;;28.50;65.40;;;;;;5030911;28;20207;-68
2022/05/08 12:17:23;;;;;;;3.67;2.50;;;27.90;65.20;;;;;;5030744;28;20200;-67
2022/05/08 12:19:54;;;;;;;5.05;2.60;;;27.20;66.50;;;;;;5047525;28;20207;-67
2022/05/08 12:22:24;;;;;;;6.50;2.40;;;27.70;65.90;;;;;;5030616;28;20223;-68
2022/05/08 12:24:55;;;;;;;7.95;2.85;;;28.30;64.90;;;;;;5030929;28;20204;-68
2022/05/08 12:27:22;;;;;;;4.45;2.95;;;29.10;62.10;;;;;;5032840;28;20706;-68
2022/05/08 12:29:50;;;;;;;16.60;4.13;;;29.20;60.30;;;;;;5034422;28;20278;-69
2022/05/08 12:32:17;;;;;;;4.93;2.40;;;28.70;63.30;;;;;;5034631;28;20199;-70
2022/05/08 12:34:44;;;;;;;7.97;2.95;;;29.20;59.90;;;;;;5017751;28;20199;-71
2022/05/08 12:37:13;;;;;;;3.83;2.05;;;29.50;57.60;;;;;;5034471;28;20728;-69
2022/05/08 12:39:40;;;;;;;2.67;2.10;;;29.00;56.90;;;;;;5033944;28;20266;-68
2022/05/08 12:42:08;;;;;;;2.97;2.00;;;26.90;58.40;;;;;;5034444;28;20258;-70
2022/05/08 12:44:37;;;;;;;2.75;2.05;;;26.10;61.80;;;;;;5033862;28;20234;-69
2022/05/08 12:47:05;;;;;;;3.33;2.10;;;26.60;61.10;;;;;;5034319;28;20192;-70
2022/05/08 12:49:33;;;;;;;5.07;2.53;;;27.10;59.40;;;;;;5034431;28;20274;-69
2022/05/08 12:52:03;;;;;;;5.40;2.17;;;27.00;59.40;;;;;;5034061;28;20290;-70
2022/05/08 12:54:30;;;;;;;3.45;2.05;;;26.60;61.20;;;;;;5035318;28;20203;-70
2022/05/08 12:56:59;;;;;;;3.45;2.00;;;25.40;59.70;;;;;;5033835;28;20245;-69
2022/05/08 12:59:46;;;;;;;3.85;1.90;;;24.30;65.70;;;;;;5035262;28;20250;-71
2022/05/08 13:02:19;;;;;;;3.22;1.83;;;24.80;66.60;;;;;;5033867;28;20688;-70
2022/05/08 13:04:48;;;;;;;2.72;1.80;;;24.80;65.40;;;;;;5034776;28;20279;-70
2022/05/08 13:07:15;;;;;;;3.63;2.00;;;23.90;65.00;;;;;;5034855;28;20246;-70
2022/05/08 13:09:42;;;;;;;3.70;1.73;;;22.80;68.40;;;;;;5032982;28;20294;-70
2022/05/08 13:12:09;;;;;;;2.25;1.80;;;22.90;69.90;;;;;;5034093;28;20196;-69
2022/05/08 13:14:37;;;;;;;3.38;1.90;;;23.80;68.30;;;;;;5050557;28;20202;-69
2022/05/08 13:17:05;;;;;;;5.47;2.05;;;24.50;65.90;;;;;;5034983;28;20264;-70
2022/05/08 13:19:36;;;;;;;2.80;1.70;;;24.60;65.50;;;;;;5033878;28;20692;-69
2022/05/08 13:22:05;;;;;;;3.05;1.70;;;24.30;65.40;;;;;;5033271;28;20723;-69